createdAt,value
2024-01-06T00:01:23.857Z,-0.70
2024-01-06T00:03:54.663Z,-0.70
2024-01-06T00:06:24.615Z,-0.70
2024-01-06T00:08:55.618Z,-0.70
2024-01-06T00:11:24.258Z,-0.70
2024-01-06T00:13:52.746Z,-0.80
2024-01-06T00:16:21.464Z,-0.80
2024-01-06T00:18:50.171Z,-0.80
2024-01-06T00:21:18.760Z,-0.80
2024-01-06T00:23:48.597Z,-0.70
2024-01-06T00:26:16.993Z,-0.70
2024-01-06T00:28:50.171Z,-0.80
2024-01-06T00:31:21.921Z,-0.70
2024-01-06T00:33:52.765Z,-0.70
2024-01-06T00:36:21.298Z,-0.70
2024-01-06T00:38:53.621Z,-0.70
2024-01-06T00:41:21.968Z,-0.70
2024-01-06T00:43:50.494Z,-0.70
2024-01-06T00:46:18.902Z,-0.70
2024-01-06T00:48:47.413Z,-0.70
2024-01-06T00:51:16.041Z,-0.70
2024-01-06T00:53:46.671Z,-0.80
2024-01-06T00:56:16.538Z,-0.70
2024-01-06T00:58:44.897Z,-0.70
2024-01-06T01:01:13.384Z,-0.70
2024-01-06T01:03:42.040Z,-0.70
2024-01-06T01:06:10.604Z,-0.70
2024-01-06T01:08:39.205Z,-0.70
2024-01-06T01:11:07.816Z,-0.70
2024-01-06T01:13:37.734Z,-0.70
2024-01-06T01:16:06.636Z,-0.70
2024-01-06T01:18:35.225Z,-0.70
2024-01-06T01:21:03.755Z,-0.70
2024-01-06T01:23:32.153Z,-0.70
2024-01-06T01:26:00.552Z,-0.70
2024-01-06T01:28:28.941Z,-0.70
2024-01-06T01:30:58.959Z,-0.60
2024-01-06T01:33:29.830Z,-0.70
2024-01-06T01:36:00.808Z,-0.70
2024-01-06T01:38:30.655Z,-0.60
2024-01-06T01:41:00.615Z,-0.70
2024-01-06T01:43:30.041Z,-0.70
2024-01-06T01:46:02.834Z,-0.60
2024-01-06T01:48:31.482Z,-0.70
2024-01-06T01:51:02.270Z,-0.60
2024-01-06T01:53:31.108Z,-0.70
2024-01-06T01:55:59.913Z,-0.70
2024-01-06T01:58:30.870Z,-0.60
2024-01-06T02:01:03.525Z,-0.70
2024-01-06T02:03:32.529Z,-0.70
2024-01-06T02:06:03.404Z,-0.70
2024-01-06T02:08:31.833Z,-0.70
2024-01-06T02:11:00.232Z,-0.70
2024-01-06T02:13:35.729Z,-0.70
2024-01-06T02:16:06.502Z,-0.70
2024-01-06T02:18:35.817Z,-0.60
2024-01-06T02:21:04.969Z,-0.70
2024-01-06T02:23:37.254Z,-0.70
2024-01-06T02:26:05.907Z,-0.60
2024-01-06T02:28:34.291Z,-0.60
2024-01-06T02:31:02.811Z,-0.70
2024-01-06T02:33:31.468Z,-0.60
2024-01-06T02:35:59.963Z,-0.60
2024-01-06T02:38:28.387Z,-0.70
2024-01-06T02:40:58.422Z,-0.60
2024-01-06T02:43:26.819Z,-0.60
2024-01-06T02:45:55.342Z,-0.60
2024-01-06T02:48:24.073Z,-0.60
2024-01-06T02:50:52.641Z,-0.70
2024-01-06T02:53:23.628Z,-0.70
2024-01-06T02:55:52.332Z,-0.60
2024-01-06T02:58:22.197Z,-0.60
2024-01-06T03:01:05.593Z,-0.60
2024-01-06T03:03:37.170Z,-0.60
2024-01-06T03:06:06.100Z,-0.60
2024-01-06T03:08:36.687Z,-0.60
2024-01-06T03:11:06.842Z,-0.60
2024-01-06T03:13:36.658Z,-0.60
2024-01-06T03:16:06.995Z,-0.60
2024-01-06T03:18:35.693Z,-0.60
2024-01-06T03:21:04.294Z,-0.50
2024-01-06T03:23:32.692Z,-0.60
2024-01-06T03:26:01.052Z,-0.60
2024-01-06T03:28:29.493Z,-0.60
2024-01-06T03:30:59.385Z,-0.60
2024-01-06T03:33:28.075Z,-0.60
2024-01-06T03:35:58.636Z,-0.60
2024-01-06T03:38:27.037Z,-0.60
2024-01-06T03:40:55.401Z,-0.60
2024-01-06T03:43:23.991Z,-0.60
2024-01-06T03:45:52.488Z,-0.60
2024-01-06T03:48:22.420Z,-0.60
2024-01-06T03:50:50.989Z,-0.60
2024-01-06T03:53:19.437Z,-0.60
2024-01-06T03:55:47.853Z,-0.60
2024-01-06T03:58:16.267Z,-0.60
2024-01-06T04:00:44.792Z,-0.60
2024-01-06T04:03:13.280Z,-0.60
2024-01-06T04:05:43.228Z,-0.60
2024-01-06T04:08:11.632Z,-0.60
2024-01-06T04:10:40.931Z,-0.60
2024-01-06T04:13:12.596Z,-0.60
2024-01-06T04:15:41.030Z,-0.60
2024-01-06T04:18:10.835Z,-0.50
2024-01-06T04:20:39.338Z,-0.60
2024-01-06T04:23:09.172Z,-0.60
2024-01-06T04:25:37.583Z,-0.60
2024-01-06T04:28:06.641Z,-0.60
2024-01-06T04:30:35.234Z,-0.50
2024-01-06T04:33:04.196Z,-0.60
2024-01-06T04:35:32.716Z,-0.50
2024-01-06T04:38:01.101Z,-0.50
2024-01-06T04:40:31.283Z,-0.50
2024-01-06T04:43:02.000Z,-0.60
2024-01-06T04:45:30.522Z,-0.50
2024-01-06T04:47:59.040Z,-0.50
2024-01-06T04:50:27.523Z,-0.50
2024-01-06T04:52:55.893Z,-0.60
2024-01-06T04:55:24.314Z,-0.60
2024-01-06T04:57:54.168Z,-0.60
2024-01-06T05:00:22.563Z,-0.60
2024-01-06T05:02:51.017Z,-0.60
2024-01-06T05:05:21.882Z,-0.50
2024-01-06T05:07:50.364Z,-0.50
2024-01-06T05:10:18.755Z,-0.50
2024-01-06T05:12:47.115Z,-0.60
2024-01-06T05:15:17.038Z,-0.60
2024-01-06T05:17:45.647Z,-0.60
2024-01-06T05:20:16.582Z,-0.60
2024-01-06T05:22:44.986Z,-0.60
2024-01-06T05:25:13.401Z,-0.60
2024-01-06T05:27:41.768Z,-0.50
2024-01-06T05:30:11.223Z,-0.50
2024-01-06T05:32:41.055Z,-0.50
2024-01-06T05:35:09.893Z,-0.50
2024-01-06T05:37:38.361Z,-0.60
2024-01-06T05:40:10.479Z,-0.50
2024-01-06T05:42:41.729Z,-0.50
2024-01-06T05:45:13.673Z,-0.60
2024-01-06T05:47:43.608Z,-0.60
2024-01-06T05:50:12.690Z,-0.60
2024-01-06T05:52:41.018Z,-0.60
2024-01-06T05:55:10.389Z,-0.60
2024-01-06T05:57:38.851Z,-0.60
2024-01-06T06:00:10.774Z,-0.60
2024-01-06T06:02:41.273Z,-0.60
2024-01-06T06:05:11.492Z,-0.60
2024-01-06T06:07:41.247Z,-0.60
2024-01-06T06:10:10.832Z,-0.60
2024-01-06T06:12:39.911Z,-0.60
2024-01-06T06:15:09.286Z,-0.60
2024-01-06T06:17:38.375Z,-0.60
2024-01-06T06:20:08.377Z,-0.60
2024-01-06T06:22:38.357Z,-0.60
2024-01-06T06:25:07.913Z,-0.60
2024-01-06T06:27:36.678Z,-0.60
2024-01-06T06:30:05.921Z,-0.60
2024-01-06T06:32:34.325Z,-0.60
2024-01-06T06:35:05.621Z,-0.60
2024-01-06T06:37:34.056Z,-0.60
2024-01-06T06:40:03.932Z,-0.60
2024-01-06T06:42:32.414Z,-0.60
2024-01-06T06:45:00.774Z,-0.60
2024-01-06T06:47:29.184Z,-0.60
2024-01-06T06:49:57.659Z,-0.60
2024-01-06T06:52:28.601Z,-0.60
2024-01-06T06:54:57.056Z,-0.50
2024-01-06T06:57:27.014Z,-0.60
2024-01-06T06:59:55.647Z,-0.50
2024-01-06T07:02:24.275Z,-0.60
2024-01-06T07:04:52.708Z,-0.60
2024-01-06T07:07:24.208Z,-0.60
2024-01-06T07:09:52.692Z,-0.60
2024-01-06T07:12:21.193Z,-0.60
2024-01-06T07:14:50.958Z,-0.60
2024-01-06T07:17:19.416Z,-0.60
2024-01-06T07:19:47.958Z,-0.60
2024-01-06T07:22:17.662Z,-0.60
2024-01-06T07:24:46.434Z,-0.60
2024-01-06T07:27:16.250Z,-0.60
2024-01-06T07:29:44.673Z,-0.70
2024-01-06T07:32:15.048Z,-0.60
2024-01-06T07:34:44.690Z,-0.70
2024-01-06T07:37:13.126Z,-0.60
2024-01-06T07:39:44.350Z,-0.70
2024-01-06T07:42:15.039Z,-0.70
2024-01-06T07:44:43.475Z,-0.70
2024-01-06T07:47:11.905Z,-0.70
2024-01-06T07:49:41.790Z,-0.60
2024-01-06T07:52:12.634Z,-0.70
2024-01-06T07:54:41.071Z,-0.60
2024-01-06T07:57:09.481Z,-0.60
2024-01-06T07:59:37.904Z,-0.60
2024-01-06T08:02:06.503Z,-0.60
2024-01-06T08:04:35.133Z,-0.60
2024-01-06T08:07:05.333Z,-0.70
2024-01-06T08:09:34.285Z,-0.70
2024-01-06T08:12:03.426Z,-0.60
2024-01-06T08:14:31.816Z,-0.60
2024-01-06T08:17:02.864Z,-0.70
2024-01-06T08:19:33.736Z,-0.60
2024-01-06T08:22:02.313Z,-0.60
2024-01-06T08:24:32.179Z,-0.60
2024-01-06T08:27:00.592Z,-0.60
2024-01-06T08:29:28.975Z,-0.60
2024-01-06T08:31:57.493Z,-0.60
2024-01-06T08:34:27.638Z,-0.60
2024-01-06T08:36:57.024Z,-0.60
2024-01-06T08:39:26.287Z,-0.60
2024-01-06T08:41:58.575Z,-0.60
2024-01-06T08:44:28.385Z,-0.60
2024-01-06T08:46:57.374Z,-0.60
2024-01-06T08:49:26.048Z,-0.60
2024-01-06T08:51:54.498Z,-0.60
2024-01-06T08:54:23.014Z,-0.60
2024-01-06T08:56:55.947Z,-0.60
2024-01-06T08:59:24.310Z,-0.60
2024-01-06T09:01:53.413Z,-0.60
2024-01-06T09:04:24.963Z,-0.60
2024-01-06T09:06:53.487Z,-0.60
2024-01-06T09:09:21.974Z,-0.60
2024-01-06T09:11:50.453Z,-0.60
2024-01-06T09:14:22.351Z,-0.60
2024-01-06T09:16:50.849Z,-0.70
2024-01-06T09:19:19.467Z,-0.60
2024-01-06T09:21:47.911Z,-0.60
2024-01-06T09:24:16.475Z,-0.70
2024-01-06T09:26:45.516Z,-0.70
2024-01-06T09:29:15.762Z,-0.60
2024-01-06T09:31:49.365Z,-0.60
2024-01-06T09:34:18.042Z,-0.60
2024-01-06T09:36:46.504Z,-0.60
2024-01-06T09:39:15.021Z,-0.50
2024-01-06T09:41:44.130Z,-0.60
2024-01-06T09:44:15.385Z,-0.80
2024-01-06T09:46:45.189Z,-0.60
2024-01-06T09:49:16.575Z,-0.60
2024-01-06T09:51:45.323Z,-0.50
2024-01-06T09:54:15.454Z,-0.50
2024-01-06T09:56:48.426Z,-0.50
2024-01-06T09:59:16.821Z,-0.50
2024-01-06T10:01:46.469Z,-0.50
2024-01-06T10:04:20.502Z,-0.50
2024-01-06T10:06:51.008Z,-0.50
2024-01-06T10:09:19.578Z,-0.50
2024-01-06T10:11:48.245Z,-0.50
2024-01-06T10:14:16.657Z,-0.50
2024-01-06T10:16:45.740Z,-0.50
2024-01-06T10:19:14.646Z,-0.40
2024-01-06T10:21:45.020Z,-0.40
2024-01-06T10:24:13.585Z,-0.40
2024-01-06T10:26:42.260Z,-0.40
2024-01-06T10:29:10.973Z,-0.40
2024-01-06T10:31:39.613Z,-0.40
2024-01-06T10:34:08.400Z,-0.40
2024-01-06T10:36:37.659Z,-0.40
2024-01-06T10:39:08.531Z,-0.30
2024-01-06T10:41:38.837Z,-0.30
2024-01-06T10:44:08.475Z,-0.30
2024-01-06T10:46:36.937Z,-0.30
2024-01-06T10:49:09.443Z,-0.20
2024-01-06T10:51:39.467Z,-0.20
2024-01-06T10:54:09.739Z,-0.20
2024-01-06T10:56:39.783Z,-0.10
2024-01-06T10:59:09.408Z,-0.20
2024-01-06T11:01:41.602Z,-0.20
2024-01-06T11:04:12.281Z,-0.20
2024-01-06T11:06:41.256Z,-0.20
2024-01-06T11:09:16.007Z,-0.20
2024-01-06T11:11:44.606Z,-0.20
2024-01-06T11:14:25.290Z,-0.20
2024-01-06T11:16:56.880Z,-0.30
2024-01-06T11:19:48.715Z,-0.30
2024-01-06T11:22:25.603Z,-0.30
2024-01-06T11:24:57.421Z,-0.30
2024-01-06T11:27:29.782Z,-0.30
2024-01-06T11:29:59.488Z,-0.20
2024-01-06T11:32:30.992Z,-0.20
2024-01-06T11:35:09.574Z,-0.20
2024-01-06T11:37:56.271Z,-0.30
2024-01-06T11:40:28.344Z,-0.30
2024-01-06T11:43:01.541Z,-0.30
2024-01-06T11:45:30.671Z,-0.30
2024-01-06T11:48:01.417Z,-0.30
2024-01-06T11:50:30.320Z,-0.30
2024-01-06T11:52:58.945Z,-0.30
2024-01-06T11:55:30.220Z,-0.30
2024-01-06T11:58:04.888Z,-0.30
2024-01-06T12:00:36.574Z,-0.30
2024-01-06T12:03:07.569Z,-0.20
2024-01-06T12:05:36.638Z,-0.30
2024-01-06T12:08:08.756Z,-0.40
2024-01-06T12:10:39.215Z,-0.30
2024-01-06T12:13:09.971Z,-0.40
2024-01-06T12:15:40.919Z,-0.40
2024-01-06T12:18:09.940Z,-0.40
2024-01-06T12:20:38.493Z,-0.40
2024-01-06T12:23:08.276Z,-0.40
2024-01-06T12:25:41.268Z,-0.40
2024-01-06T12:28:09.180Z,-0.40
2024-01-06T12:30:38.058Z,-0.40
2024-01-06T12:33:07.244Z,-0.40
2024-01-06T12:35:36.811Z,-0.40
2024-01-06T12:38:08.171Z,-0.30
2024-01-06T12:40:38.153Z,-0.30
2024-01-06T12:43:08.548Z,-0.30
2024-01-06T12:45:37.142Z,-0.30
2024-01-06T12:48:06.251Z,-0.30
2024-01-06T12:50:36.863Z,-0.30
2024-01-06T12:53:05.715Z,-0.30
2024-01-06T12:55:34.117Z,-0.30
2024-01-06T12:58:05.177Z,-0.20
2024-01-06T13:00:37.370Z,-0.20
2024-01-06T13:03:07.108Z,-0.20
2024-01-06T13:05:38.430Z,-0.20
2024-01-06T13:08:07.826Z,-0.20
2024-01-06T13:10:37.054Z,-0.20
2024-01-06T13:13:06.604Z,-0.20
2024-01-06T13:15:52.481Z,-0.20
2024-01-06T13:18:21.018Z,-0.10
2024-01-06T13:20:51.587Z,-0.10
2024-01-06T13:23:20.095Z,-0.10
2024-01-06T13:25:48.526Z,-0.10
2024-01-06T13:28:16.931Z,-0.10
2024-01-06T13:30:47.748Z,-0.10
2024-01-06T13:33:16.296Z,-0.10
2024-01-06T13:35:47.515Z,-0.10
2024-01-06T13:38:17.360Z,0.00
2024-01-06T13:40:45.811Z,0.00
2024-01-06T13:43:16.998Z,-0.10
2024-01-06T13:45:49.742Z,0.00
2024-01-06T13:48:19.269Z,0.00
2024-01-06T13:50:47.818Z,0.00
2024-01-06T13:53:18.681Z,0.00
2024-01-06T13:55:47.374Z,0.00
2024-01-06T13:58:15.822Z,-0.10
2024-01-06T14:00:45.258Z,-0.10
2024-01-06T14:03:15.209Z,-0.20
2024-01-06T14:05:43.836Z,-0.10
2024-01-06T14:08:12.408Z,-0.20
2024-01-06T14:10:40.789Z,-0.20
2024-01-06T14:13:09.233Z,-0.20
2024-01-06T14:15:37.904Z,-0.20
2024-01-06T14:18:06.979Z,-0.30
2024-01-06T14:20:39.428Z,-0.30
2024-01-06T14:23:07.844Z,-0.30
2024-01-06T14:25:36.247Z,-0.30
2024-01-06T14:28:04.913Z,-0.30
2024-01-06T14:30:33.489Z,-0.30
2024-01-06T14:33:02.059Z,-0.30
2024-01-06T14:35:30.516Z,-0.30
2024-01-06T14:38:00.321Z,-0.30
2024-01-06T14:40:28.700Z,-0.20
2024-01-06T14:42:58.827Z,-0.10
2024-01-06T14:45:27.443Z,-0.20
2024-01-06T14:47:55.922Z,-0.20
2024-01-06T14:50:24.451Z,-0.20
2024-01-06T14:52:52.868Z,-0.20
2024-01-06T14:55:24.796Z,-0.20
2024-01-06T14:57:55.862Z,-0.10
2024-01-06T15:00:24.900Z,-0.10
2024-01-06T15:02:53.389Z,-0.10
2024-01-06T15:05:22.095Z,-0.10
2024-01-06T15:07:50.663Z,0.00
2024-01-06T15:10:19.040Z,0.00
2024-01-06T15:12:49.292Z,0.10
2024-01-06T15:15:17.840Z,0.00
2024-01-06T15:17:48.806Z,0.00
2024-01-06T15:20:17.317Z,0.10
2024-01-06T15:22:45.770Z,0.00
2024-01-06T15:25:14.327Z,0.00
2024-01-06T15:27:43.460Z,0.10
2024-01-06T15:30:13.828Z,0.20
2024-01-06T15:32:44.375Z,0.10
2024-01-06T15:35:15.357Z,0.00
2024-01-06T15:37:43.808Z,0.10
2024-01-06T15:40:14.367Z,0.00
2024-01-06T15:42:43.096Z,0.10
2024-01-06T15:45:13.288Z,0.00
2024-01-06T15:47:42.048Z,0.00
2024-01-06T15:50:10.929Z,0.10
2024-01-06T15:52:39.362Z,0.10
2024-01-06T15:55:08.567Z,0.10
2024-01-06T15:57:38.564Z,0.10
2024-01-06T16:00:08.025Z,0.00
2024-01-06T16:02:39.708Z,0.00
2024-01-06T16:05:08.958Z,0.00
2024-01-06T16:07:39.544Z,0.00
2024-01-06T16:10:09.170Z,0.10
2024-01-06T16:12:41.384Z,-0.10
2024-01-06T16:15:10.511Z,0.10
2024-01-06T16:17:40.550Z,0.00
2024-01-06T16:20:09.648Z,0.10
2024-01-06T16:22:38.045Z,0.10
2024-01-06T16:25:07.466Z,0.10
2024-01-06T16:27:36.174Z,0.00
2024-01-06T16:30:05.100Z,0.00
2024-01-06T16:32:33.597Z,0.00
2024-01-06T16:35:03.941Z,0.20
2024-01-06T16:37:32.381Z,0.00
2024-01-06T16:40:01.082Z,0.00
2024-01-06T16:42:29.611Z,0.00
2024-01-06T16:44:58.257Z,0.00
2024-01-06T16:47:29.091Z,0.00
2024-01-06T16:49:57.732Z,0.00
2024-01-06T16:52:27.622Z,0.00
2024-01-06T16:54:56.206Z,0.10
2024-01-06T16:57:24.674Z,0.00
2024-01-06T16:59:53.070Z,0.00
2024-01-06T17:02:21.509Z,0.00
2024-01-06T17:04:50.122Z,0.00
2024-01-06T17:07:18.840Z,0.00
2024-01-06T17:09:48.902Z,-0.10
2024-01-06T17:12:19.305Z,0.00
2024-01-06T17:14:49.440Z,0.10
2024-01-06T17:17:17.911Z,0.00
2024-01-06T17:19:46.589Z,0.00
2024-01-06T17:22:15.043Z,0.00
2024-01-06T17:24:43.476Z,0.00
2024-01-06T17:27:14.387Z,0.00
2024-01-06T17:29:43.381Z,0.00
2024-01-06T17:32:12.720Z,0.00
2024-01-06T17:34:41.249Z,0.00
2024-01-06T17:37:09.653Z,0.00
2024-01-06T17:39:39.076Z,0.00
2024-01-06T17:42:08.750Z,-0.10
2024-01-06T17:44:45.745Z,0.00
2024-01-06T17:47:15.089Z,0.00
2024-01-06T17:49:46.034Z,0.00
2024-01-06T17:52:14.671Z,0.00
2024-01-06T17:54:43.253Z,0.00
2024-01-06T17:57:18.734Z,0.00
2024-01-06T17:59:48.963Z,-0.10
2024-01-06T18:02:19.650Z,-0.10
2024-01-06T18:04:48.604Z,0.00
2024-01-06T18:07:19.612Z,-0.10
2024-01-06T18:09:50.632Z,0.00
2024-01-06T18:12:19.249Z,-0.10
2024-01-06T18:14:49.115Z,-0.10
2024-01-06T18:17:18.424Z,-0.10
2024-01-06T18:19:46.904Z,-0.10
2024-01-06T18:22:15.443Z,-0.10
2024-01-06T18:24:44.284Z,-0.10
2024-01-06T18:27:12.722Z,-0.10
2024-01-06T18:29:41.116Z,-0.10
2024-01-06T18:32:14.145Z,-0.10
2024-01-06T18:34:46.566Z,0.00
2024-01-06T18:37:15.550Z,-0.10
2024-01-06T18:39:46.083Z,-0.10
2024-01-06T18:42:15.431Z,-0.10
2024-01-06T18:44:44.010Z,-0.10
2024-01-06T18:47:15.453Z,-0.10
2024-01-06T18:49:44.184Z,-0.10
2024-01-06T18:52:12.961Z,-0.10
2024-01-06T18:54:42.599Z,-0.10
2024-01-06T18:57:15.057Z,-0.10
2024-01-06T18:59:45.541Z,-0.10
2024-01-06T19:02:16.314Z,-0.10
2024-01-06T19:04:47.309Z,-0.10
2024-01-06T19:07:17.302Z,-0.10
2024-01-06T19:09:45.857Z,-0.10
2024-01-06T19:12:14.304Z,-0.10
2024-01-06T19:14:42.843Z,0.00
2024-01-06T19:17:13.369Z,-0.10
2024-01-06T19:19:46.014Z,-0.10
2024-01-06T19:22:15.343Z,-0.10
2024-01-06T19:24:44.333Z,-0.20
2024-01-06T19:27:13.011Z,-0.20
2024-01-06T19:29:43.677Z,-0.10
2024-01-06T19:32:16.462Z,-0.20
2024-01-06T19:34:46.967Z,-0.10
2024-01-06T19:37:15.574Z,-0.10
2024-01-06T19:39:44.449Z,-0.20
2024-01-06T19:42:12.912Z,-0.20
2024-01-06T19:44:41.378Z,-0.20
2024-01-06T19:47:11.038Z,-0.20
2024-01-06T19:49:39.729Z,-0.20
2024-01-06T19:52:09.842Z,-0.20
2024-01-06T19:54:39.377Z,-0.20
2024-01-06T19:57:07.877Z,-0.20
2024-01-06T19:59:38.655Z,-0.30
2024-01-06T20:02:07.240Z,-0.30
2024-01-06T20:04:35.725Z,-0.30
2024-01-06T20:07:04.320Z,-0.30
2024-01-06T20:09:35.848Z,-0.30
2024-01-06T20:12:04.373Z,-0.30
2024-01-06T20:14:32.824Z,-0.30
2024-01-06T20:17:01.261Z,-0.30
2024-01-06T20:19:32.160Z,-0.30
2024-01-06T20:22:00.732Z,-0.40
2024-01-06T20:24:29.179Z,-0.40
2024-01-06T20:26:59.022Z,-0.40
2024-01-06T20:29:27.457Z,-0.30
2024-01-06T20:31:56.366Z,-0.40
2024-01-06T20:34:26.634Z,-0.40
2024-01-06T20:36:55.412Z,-0.40
2024-01-06T20:39:24.069Z,-0.40
2024-01-06T20:41:52.842Z,-1.00
2024-01-06T20:44:23.065Z,-0.30
2024-01-06T20:51:56.800Z,-0.60
2024-01-06T20:54:25.480Z,-0.50
2024-01-06T20:56:54.710Z,-0.50
2024-01-06T20:59:24.772Z,-0.50
2024-01-06T21:01:53.244Z,-0.40
2024-01-06T21:04:21.755Z,-0.50
2024-01-06T21:06:50.188Z,-0.40
2024-01-06T21:09:20.462Z,-0.50
2024-01-06T21:14:18.527Z,-0.50
2024-01-06T21:16:48.425Z,-0.60
2024-01-06T21:19:17.042Z,-0.40
2024-01-06T21:21:45.771Z,-0.50
2024-01-06T21:26:45.506Z,-0.40
2024-01-06T21:29:13.946Z,-0.50
2024-01-06T21:34:15.917Z,-0.50
2024-01-06T21:36:44.530Z,-0.50
2024-01-06T21:39:12.958Z,-0.50
2024-01-06T21:41:41.884Z,-0.50
2024-01-06T21:44:10.254Z,-0.50
2024-01-06T21:46:39.370Z,-0.50
2024-01-06T21:49:07.974Z,-0.50
2024-01-06T21:51:47.774Z,-0.40
2024-01-06T21:54:16.188Z,-0.50
2024-01-06T21:56:45.221Z,-0.50
2024-01-06T21:59:13.734Z,-0.50
2024-01-06T22:01:43.220Z,-0.50
2024-01-06T22:04:12.322Z,-0.60
2024-01-06T22:06:42.204Z,-0.60
2024-01-06T22:09:13.258Z,-0.50
2024-01-06T22:11:43.132Z,-0.50
2024-01-06T22:14:11.724Z,-1.10
2024-01-06T22:16:41.143Z,-0.50
2024-01-06T22:19:11.451Z,-0.50
2024-01-06T22:21:45.388Z,-0.50
2024-01-06T22:24:15.526Z,-0.50
2024-01-06T22:26:43.975Z,-0.80
2024-01-06T22:29:12.498Z,-0.50
2024-01-06T22:31:43.874Z,-0.60
2024-01-06T22:34:13.776Z,-0.60
2024-01-06T22:36:48.750Z,-0.40
2024-01-06T22:39:17.582Z,-0.50
2024-01-06T22:41:46.524Z,-0.50
2024-01-06T22:44:14.950Z,-0.60
2024-01-06T22:46:43.340Z,-0.50
2024-01-06T22:49:12.282Z,-0.50
2024-01-06T22:51:40.790Z,-0.50
2024-01-06T22:54:13.032Z,-0.50
2024-01-06T22:56:41.446Z,-0.50
2024-01-06T22:59:11.896Z,-0.60
2024-01-06T23:01:40.362Z,-0.60
2024-01-06T23:04:09.606Z,-0.50
2024-01-06T23:06:40.280Z,-0.50
2024-01-06T23:09:08.822Z,-0.50
2024-01-06T23:11:38.619Z,-0.60
2024-01-06T23:14:07.042Z,-0.60
2024-01-06T23:16:35.501Z,-0.50
2024-01-06T23:19:04.032Z,-0.50
2024-01-06T23:21:32.548Z,-0.60
2024-01-06T23:24:00.928Z,-0.50
2024-01-06T23:26:29.339Z,-0.60
2024-01-06T23:28:59.176Z,-0.60
2024-01-06T23:31:27.794Z,-0.60
2024-01-06T23:33:56.386Z,-0.60
2024-01-06T23:36:27.245Z,-0.60
2024-01-06T23:38:55.683Z,-0.60
2024-01-06T23:41:24.077Z,-0.60
2024-01-06T23:43:54.801Z,-0.60
2024-01-06T23:46:26.328Z,-0.60
2024-01-06T23:48:55.277Z,-0.60
2024-01-06T23:51:23.949Z,-0.60
2024-01-06T23:53:54.014Z,-0.60
2024-01-06T23:56:22.530Z,-0.60
2024-01-06T23:58:50.986Z,-0.60
